sensor_id;sensor_type;location;lat;lon;timestamp;P1;durP1;ratioP1;P2;durP2;ratioP2
13927;SDS011;7036;50.834;4.718;2023-03-01T00:02:18;4.05;;;2.90;;
13927;SDS011;7036;50.834;4.718;2023-03-01T00:04:46;5.88;;;3.33;;
13927;SDS011;7036;50.834;4.718;2023-03-01T00:07:14;4.20;;;3.22;;
13927;SDS011;7036;50.834;4.718;2023-03-01T00:09:42;3.47;;;2.88;;
13927;SDS011;7036;50.834;4.718;2023-03-01T00:12:11;3.10;;;2.80;;
13927;SDS011;7036;50.834;4.718;2023-03-01T00:14:37;3.40;;;3.10;;
13927;SDS011;7036;50.834;4.718;2023-03-01T00:17:05;3.42;;;3.00;;
13927;SDS011;7036;50.834;4.718;2023-03-01T00:19:32;5.38;;;3.40;;
13927;SDS011;7036;50.834;4.718;2023-03-01T00:21:59;3.83;;;3.28;;
13927;SDS011;7036;50.834;4.718;2023-03-01T00:24:26;3.15;;;2.90;;
13927;SDS011;7036;50.834;4.718;2023-03-01T00:26:54;3.40;;;3.03;;
13927;SDS011;7036;50.834;4.718;2023-03-01T00:29:23;3.88;;;3.42;;
13927;SDS011;7036;50.834;4.718;2023-03-01T00:31:49;4.65;;;3.42;;
13927;SDS011;7036;50.834;4.718;2023-03-01T00:34:17;3.63;;;3.25;;
13927;SDS011;7036;50.834;4.718;2023-03-01T00:36:44;3.00;;;2.80;;
13927;SDS011;7036;50.834;4.718;2023-03-01T00:39:13;4.03;;;3.00;;
13927;SDS011;7036;50.834;4.718;2023-03-01T00:41:40;3.60;;;3.25;;
13927;SDS011;7036;50.834;4.718;2023-03-01T00:44:08;4.57;;;3.45;;
13927;SDS011;7036;50.834;4.718;2023-03-01T00:46:36;3.40;;;2.90;;
13927;SDS011;7036;50.834;4.718;2023-03-01T00:49:04;2.90;;;2.70;;
13927;SDS011;7036;50.834;4.718;2023-03-01T00:51:32;4.13;;;3.33;;
13927;SDS011;7036;50.834;4.718;2023-03-01T00:53:59;3.88;;;3.05;;
13927;SDS011;7036;50.834;4.718;2023-03-01T00:56:26;3.35;;;3.05;;
13927;SDS011;7036;50.834;4.718;2023-03-01T00:58:54;3.40;;;3.10;;
13927;SDS011;7036;50.834;4.718;2023-03-01T01:01:23;3.50;;;3.03;;
13927;SDS011;7036;50.834;4.718;2023-03-01T01:03:51;4.60;;;3.60;;
13927;SDS011;7036;50.834;4.718;2023-03-01T01:06:18;4.70;;;3.42;;
13927;SDS011;7036;50.834;4.718;2023-03-01T01:08:45;3.45;;;3.15;;
13927;SDS011;7036;50.834;4.718;2023-03-01T01:11:13;3.53;;;3.22;;
13927;SDS011;7036;50.834;4.718;2023-03-01T01:13:41;3.50;;;3.20;;
13927;SDS011;7036;50.834;4.718;2023-03-01T01:16:09;4.85;;;3.15;;
13927;SDS011;7036;50.834;4.718;2023-03-01T01:18:36;3.55;;;3.25;;
13927;SDS011;7036;50.834;4.718;2023-03-01T01:21:06;3.90;;;3.42;;
13927;SDS011;7036;50.834;4.718;2023-03-01T01:23:31;3.83;;;3.42;;
13927;SDS011;7036;50.834;4.718;2023-03-01T01:26:03;3.97;;;3.58;;
13927;SDS011;7036;50.834;4.718;2023-03-01T01:28:29;3.40;;;3.10;;
13927;SDS011;7036;50.834;4.718;2023-03-01T01:30:56;3.85;;;3.22;;
13927;SDS011;7036;50.834;4.718;2023-03-01T01:33:24;4.47;;;3.35;;
13927;SDS011;7036;50.834;4.718;2023-03-01T01:35:51;4.93;;;3.03;;
13927;SDS011;7036;50.834;4.718;2023-03-01T01:38:19;3.45;;;3.13;;
13927;SDS011;7036;50.834;4.718;2023-03-01T01:40:48;4.28;;;3.30;;
13927;SDS011;7036;50.834;4.718;2023-03-01T01:45:59;4.00;;;3.60;;
13927;SDS011;7036;50.834;4.718;2023-03-01T01:48:24;3.93;;;3.63;;
13927;SDS011;7036;50.834;4.718;2023-03-01T01:50:55;4.30;;;3.33;;
13927;SDS011;7036;50.834;4.718;2023-03-01T01:53:19;3.95;;;3.35;;
13927;SDS011;7036;50.834;4.718;2023-03-01T01:55:51;3.85;;;3.53;;
13927;SDS011;7036;50.834;4.718;2023-03-01T01:58:15;3.67;;;3.38;;
13927;SDS011;7036;50.834;4.718;2023-03-01T02:00:42;3.97;;;3.67;;
13927;SDS011;7036;50.834;4.718;2023-03-01T02:03:14;3.53;;;3.10;;
13927;SDS011;7036;50.834;4.718;2023-03-01T02:05:47;4.03;;;3.67;;
13927;SDS011;7036;50.834;4.718;2023-03-01T02:08:16;5.60;;;3.70;;
13927;SDS011;7036;50.834;4.718;2023-03-01T02:10:44;4.30;;;3.90;;
13927;SDS011;7036;50.834;4.718;2023-03-01T02:13:12;3.40;;;3.15;;
13927;SDS011;7036;50.834;4.718;2023-03-01T02:15:40;3.58;;;2.95;;
13927;SDS011;7036;50.834;4.718;2023-03-01T02:18:07;3.17;;;2.97;;
13927;SDS011;7036;50.834;4.718;2023-03-01T02:23:32;3.97;;;3.67;;
13927;SDS011;7036;50.834;4.718;2023-03-01T02:26:12;3.90;;;3.50;;
13927;SDS011;7036;50.834;4.718;2023-03-01T02:28:38;3.60;;;3.30;;
13927;SDS011;7036;50.834;4.718;2023-03-01T02:31:09;4.07;;;3.67;;
13927;SDS011;7036;50.834;4.718;2023-03-01T02:33:53;3.70;;;3.37;;
13927;SDS011;7036;50.834;4.718;2023-03-01T02:36:21;4.07;;;3.58;;
13927;SDS011;7036;50.834;4.718;2023-03-01T02:38:50;4.43;;;3.37;;
13927;SDS011;7036;50.834;4.718;2023-03-01T02:41:17;3.92;;;3.63;;
13927;SDS011;7036;50.834;4.718;2023-03-01T02:43:44;5.20;;;3.85;;
13927;SDS011;7036;50.834;4.718;2023-03-01T02:46:21;4.72;;;4.20;;
13927;SDS011;7036;50.834;4.718;2023-03-01T02:48:46;4.10;;;3.67;;
13927;SDS011;7036;50.834;4.718;2023-03-01T02:51:17;4.28;;;3.85;;
13927;SDS011;7036;50.834;4.718;2023-03-01T02:54:01;3.97;;;3.53;;
13927;SDS011;7036;50.834;4.718;2023-03-01T02:56:23;4.07;;;3.37;;
13927;SDS011;7036;50.834;4.718;2023-03-01T02:58:51;4.18;;;3.78;;
13927;SDS011;7036;50.834;4.718;2023-03-01T03:01:19;3.72;;;3.42;;
13927;SDS011;7036;50.834;4.718;2023-03-01T03:03:46;3.72;;;3.42;;
13927;SDS011;7036;50.834;4.718;2023-03-01T03:06:13;4.28;;;3.35;;
13927;SDS011;7036;50.834;4.718;2023-03-01T03:08:41;4.00;;;3.60;;
13927;SDS011;7036;50.834;4.718;2023-03-01T03:11:09;4.35;;;3.58;;
13927;SDS011;7036;50.834;4.718;2023-03-01T03:13:37;4.18;;;3.78;;
13927;SDS011;7036;50.834;4.718;2023-03-01T03:16:05;5.22;;;3.95;;
13927;SDS011;7036;50.834;4.718;2023-03-01T03:18:33;3.90;;;3.60;;
13927;SDS011;7036;50.834;4.718;2023-03-01T03:20:59;3.83;;;3.53;;
13927;SDS011;7036;50.834;4.718;2023-03-01T03:23:27;4.63;;;3.75;;
13927;SDS011;7036;50.834;4.718;2023-03-01T03:25:55;4.28;;;3.53;;
13927;SDS011;7036;50.834;4.718;2023-03-01T03:28:23;3.88;;;3.47;;
13927;SDS011;7036;50.834;4.718;2023-03-01T03:30:51;4.15;;;3.75;;
13927;SDS011;7036;50.834;4.718;2023-03-01T03:33:18;3.88;;;3.58;;
13927;SDS011;7036;50.834;4.718;2023-03-01T03:35:47;3.88;;;3.58;;
13927;SDS011;7036;50.834;4.718;2023-03-01T03:38:14;4.00;;;3.70;;
13927;SDS011;7036;50.834;4.718;2023-03-01T03:40:44;4.07;;;3.70;;
13927;SDS011;7036;50.834;4.718;2023-03-01T03:43:15;4.07;;;3.67;;
13927;SDS011;7036;50.834;4.718;2023-03-01T03:45:44;4.53;;;3.63;;
13927;SDS011;7036;50.834;4.718;2023-03-01T03:48:14;4.60;;;3.63;;
13927;SDS011;7036;50.834;4.718;2023-03-01T03:50:40;4.27;;;3.87;;
13927;SDS011;7036;50.834;4.718;2023-03-01T03:53:11;3.97;;;3.60;;
13927;SDS011;7036;50.834;4.718;2023-03-01T03:55:36;4.35;;;3.95;;
13927;SDS011;7036;50.834;4.718;2023-03-01T03:58:05;4.97;;;3.90;;
13927;SDS011;7036;50.834;4.718;2023-03-01T04:00:37;3.83;;;3.53;;
13927;SDS011;7036;50.834;4.718;2023-03-01T04:03:03;4.17;;;3.77;;
13927;SDS011;7036;50.834;4.718;2023-03-01T04:05:31;4.45;;;3.72;;
13927;SDS011;7036;50.834;4.718;2023-03-01T04:07:58;4.40;;;4.00;;
13927;SDS011;7036;50.834;4.718;2023-03-01T04:10:32;3.70;;;3.40;;
13927;SDS011;7036;50.834;4.718;2023-03-01T04:12:58;4.00;;;3.60;;
13927;SDS011;7036;50.834;4.718;2023-03-01T04:15:26;4.43;;;3.63;;
13927;SDS011;7036;50.834;4.718;2023-03-01T04:17:53;4.97;;;3.75;;
13927;SDS011;7036;50.834;4.718;2023-03-01T04:20:23;4.05;;;3.67;;
13927;SDS011;7036;50.834;4.718;2023-03-01T04:23:03;3.87;;;3.53;;
13927;SDS011;7036;50.834;4.718;2023-03-01T04:25:19;3.85;;;3.47;;
13927;SDS011;7036;50.834;4.718;2023-03-01T04:27:47;3.97;;;3.67;;
13927;SDS011;7036;50.834;4.718;2023-03-01T04:30:14;3.85;;;3.55;;
13927;SDS011;7036;50.834;4.718;2023-03-01T04:32:42;4.07;;;3.53;;
13927;SDS011;7036;50.834;4.718;2023-03-01T04:35:10;4.25;;;3.60;;
13927;SDS011;7036;50.834;4.718;2023-03-01T04:37:38;3.95;;;3.65;;
13927;SDS011;7036;50.834;4.718;2023-03-01T04:40:05;3.85;;;3.25;;
13927;SDS011;7036;50.834;4.718;2023-03-01T04:42:38;3.97;;;3.57;;
13927;SDS011;7036;50.834;4.718;2023-03-01T04:45:06;4.18;;;3.78;;
13927;SDS011;7036;50.834;4.718;2023-03-01T04:47:34;3.78;;;3.42;;
13927;SDS011;7036;50.834;4.718;2023-03-01T04:50:02;4.72;;;3.58;;
13927;SDS011;7036;50.834;4.718;2023-03-01T04:52:30;4.03;;;3.60;;
13927;SDS011;7036;50.834;4.718;2023-03-01T04:54:56;4.10;;;3.37;;
13927;SDS011;7036;50.834;4.718;2023-03-01T04:57:24;3.55;;;3.25;;
13927;SDS011;7036;50.834;4.718;2023-03-01T04:59:52;4.25;;;3.85;;
13927;SDS011;7036;50.834;4.718;2023-03-01T05:02:20;5.38;;;3.83;;
13927;SDS011;7036;50.834;4.718;2023-03-01T05:04:48;3.83;;;3.47;;
13927;SDS011;7036;50.834;4.718;2023-03-01T05:07:14;4.10;;;3.70;;
13927;SDS011;7036;50.834;4.718;2023-03-01T05:09:42;4.22;;;3.30;;
13927;SDS011;7036;50.834;4.718;2023-03-01T05:12:10;3.55;;;3.25;;
13927;SDS011;7036;50.834;4.718;2023-03-01T05:14:39;4.15;;;3.75;;
13927;SDS011;7036;50.834;4.718;2023-03-01T05:17:06;4.57;;;3.50;;
13927;SDS011;7036;50.834;4.718;2023-03-01T05:19:34;5.32;;;4.10;;
13927;SDS011;7036;50.834;4.718;2023-03-01T05:22:02;3.70;;;3.40;;
13927;SDS011;7036;50.834;4.718;2023-03-01T05:24:35;4.10;;;3.47;;
13927;SDS011;7036;50.834;4.718;2023-03-01T05:27:02;4.83;;;3.47;;
13927;SDS011;7036;50.834;4.718;2023-03-01T05:29:30;4.13;;;3.53;;
13927;SDS011;7036;50.834;4.718;2023-03-01T05:31:58;4.28;;;3.38;;
13927;SDS011;7036;50.834;4.718;2023-03-01T05:34:27;4.13;;;3.50;;
13927;SDS011;7036;50.834;4.718;2023-03-01T05:36:54;4.00;;;3.60;;
13927;SDS011;7036;50.834;4.718;2023-03-01T05:39:22;4.53;;;3.13;;
13927;SDS011;7036;50.834;4.718;2023-03-01T05:41:53;5.00;;;4.03;;
13927;SDS011;7036;50.834;4.718;2023-03-01T05:44:22;3.93;;;3.53;;
13927;SDS011;7036;50.834;4.718;2023-03-01T05:46:49;3.45;;;3.13;;
13927;SDS011;7036;50.834;4.718;2023-03-01T05:49:17;6.90;;;3.53;;
13927;SDS011;7036;50.834;4.718;2023-03-01T05:51:49;6.28;;;3.47;;
13927;SDS011;7036;50.834;4.718;2023-03-01T05:54:15;3.67;;;3.37;;
13927;SDS011;7036;50.834;4.718;2023-03-01T05:56:43;4.22;;;3.17;;
13927;SDS011;7036;50.834;4.718;2023-03-01T05:59:11;4.80;;;3.60;;
13927;SDS011;7036;50.834;4.718;2023-03-01T06:01:39;3.75;;;3.45;;
13927;SDS011;7036;50.834;4.718;2023-03-01T06:04:06;3.63;;;3.33;;
13927;SDS011;7036;50.834;4.718;2023-03-01T06:06:34;3.92;;;3.53;;
13927;SDS011;7036;50.834;4.718;2023-03-01T06:09:02;5.82;;;3.90;;
13927;SDS011;7036;50.834;4.718;2023-03-01T06:11:30;3.75;;;3.33;;
13927;SDS011;7036;50.834;4.718;2023-03-01T06:13:58;3.90;;;3.50;;
13927;SDS011;7036;50.834;4.718;2023-03-01T06:16:26;3.50;;;3.20;;
13927;SDS011;7036;50.834;4.718;2023-03-01T06:18:53;3.30;;;3.00;;
13927;SDS011;7036;50.834;4.718;2023-03-01T06:21:21;5.22;;;3.45;;
13927;SDS011;7036;50.834;4.718;2023-03-01T06:23:49;3.55;;;3.05;;
13927;SDS011;7036;50.834;4.718;2023-03-01T06:26:17;4.13;;;3.08;;
13927;SDS011;7036;50.834;4.718;2023-03-01T06:28:45;3.60;;;3.20;;
13927;SDS011;7036;50.834;4.718;2023-03-01T06:31:13;3.75;;;3.38;;
13927;SDS011;7036;50.834;4.718;2023-03-01T06:33:40;3.35;;;3.03;;
13927;SDS011;7036;50.834;4.718;2023-03-01T06:36:08;3.78;;;3.22;;
13927;SDS011;7036;50.834;4.718;2023-03-01T06:38:35;4.72;;;3.33;;
13927;SDS011;7036;50.834;4.718;2023-03-01T06:41:04;5.00;;;3.38;;
13927;SDS011;7036;50.834;4.718;2023-03-01T06:43:31;4.10;;;3.10;;
13927;SDS011;7036;50.834;4.718;2023-03-01T06:45:58;4.20;;;3.30;;
13927;SDS011;7036;50.834;4.718;2023-03-01T06:48:26;3.83;;;3.50;;
13927;SDS011;7036;50.834;4.718;2023-03-01T06:50:54;4.50;;;3.45;;
13927;SDS011;7036;50.834;4.718;2023-03-01T06:53:22;6.25;;;3.33;;
13927;SDS011;7036;50.834;4.718;2023-03-01T06:55:56;7.68;;;3.75;;
13927;SDS011;7036;50.834;4.718;2023-03-01T06:58:23;5.10;;;3.70;;
13927;SDS011;7036;50.834;4.718;2023-03-01T07:00:51;9.57;;;3.78;;
13927;SDS011;7036;50.834;4.718;2023-03-01T07:03:19;6.63;;;3.70;;
13927;SDS011;7036;50.834;4.718;2023-03-01T07:05:48;6.47;;;3.65;;
13927;SDS011;7036;50.834;4.718;2023-03-01T07:08:14;5.32;;;3.50;;
13927;SDS011;7036;50.834;4.718;2023-03-01T07:10:41;5.45;;;3.63;;
13927;SDS011;7036;50.834;4.718;2023-03-01T07:13:09;4.93;;;3.83;;
13927;SDS011;7036;50.834;4.718;2023-03-01T07:15:39;7.07;;;3.92;;
13927;SDS011;7036;50.834;4.718;2023-03-01T07:18:07;5.30;;;3.73;;
13927;SDS011;7036;50.834;4.718;2023-03-01T07:20:35;6.13;;;4.13;;
13927;SDS011;7036;50.834;4.718;2023-03-01T07:23:03;8.98;;;3.78;;
13927;SDS011;7036;50.834;4.718;2023-03-01T07:25:30;7.25;;;4.10;;
13927;SDS011;7036;50.834;4.718;2023-03-01T07:27:58;5.90;;;4.13;;
13927;SDS011;7036;50.834;4.718;2023-03-01T07:30:26;5.55;;;4.03;;
13927;SDS011;7036;50.834;4.718;2023-03-01T07:32:54;7.68;;;3.58;;
13927;SDS011;7036;50.834;4.718;2023-03-01T07:35:22;5.22;;;3.67;;
13927;SDS011;7036;50.834;4.718;2023-03-01T07:37:50;9.55;;;3.97;;
13927;SDS011;7036;50.834;4.718;2023-03-01T07:40:17;8.07;;;3.95;;
13927;SDS011;7036;50.834;4.718;2023-03-01T07:42:45;7.00;;;4.00;;
13927;SDS011;7036;50.834;4.718;2023-03-01T07:45:12;13.38;;;4.95;;
13927;SDS011;7036;50.834;4.718;2023-03-01T07:47:40;8.63;;;4.35;;
13927;SDS011;7036;50.834;4.718;2023-03-01T07:50:07;9.30;;;5.73;;
13927;SDS011;7036;50.834;4.718;2023-03-01T07:52:35;8.93;;;5.00;;
13927;SDS011;7036;50.834;4.718;2023-03-01T07:55:03;15.18;;;5.55;;
13927;SDS011;7036;50.834;4.718;2023-03-01T07:57:31;9.13;;;5.20;;
13927;SDS011;7036;50.834;4.718;2023-03-01T07:59:58;7.87;;;5.20;;
13927;SDS011;7036;50.834;4.718;2023-03-01T08:02:25;6.70;;;5.15;;
13927;SDS011;7036;50.834;4.718;2023-03-01T08:04:53;8.40;;;5.22;;
13927;SDS011;7036;50.834;4.718;2023-03-01T08:07:21;8.90;;;5.30;;
13927;SDS011;7036;50.834;4.718;2023-03-01T08:09:49;8.77;;;5.25;;
13927;SDS011;7036;50.834;4.718;2023-03-01T08:12:17;8.90;;;4.78;;
13927;SDS011;7036;50.834;4.718;2023-03-01T08:14:45;10.20;;;4.60;;
13927;SDS011;7036;50.834;4.718;2023-03-01T08:17:13;6.45;;;4.95;;
13927;SDS011;7036;50.834;4.718;2023-03-01T08:19:40;12.38;;;5.57;;
13927;SDS011;7036;50.834;4.718;2023-03-01T08:22:07;27.35;;;7.60;;
13927;SDS011;7036;50.834;4.718;2023-03-01T08:24:35;21.95;;;6.70;;
13927;SDS011;7036;50.834;4.718;2023-03-01T08:27:03;17.75;;;6.97;;
13927;SDS011;7036;50.834;4.718;2023-03-01T08:29:31;20.50;;;7.13;;
13927;SDS011;7036;50.834;4.718;2023-03-01T08:31:58;24.33;;;7.20;;
13927;SDS011;7036;50.834;4.718;2023-03-01T08:34:25;20.90;;;6.45;;
13927;SDS011;7036;50.834;4.718;2023-03-01T08:36:52;17.90;;;6.75;;
13927;SDS011;7036;50.834;4.718;2023-03-01T08:39:20;19.33;;;6.93;;
13927;SDS011;7036;50.834;4.718;2023-03-01T08:41:47;17.58;;;6.45;;
13927;SDS011;7036;50.834;4.718;2023-03-01T08:44:14;11.43;;;5.90;;
13927;SDS011;7036;50.834;4.718;2023-03-01T08:46:41;13.52;;;5.97;;
13927;SDS011;7036;50.834;4.718;2023-03-01T08:49:10;11.73;;;5.72;;
13927;SDS011;7036;50.834;4.718;2023-03-01T08:51:36;19.00;;;6.07;;
13927;SDS011;7036;50.834;4.718;2023-03-01T08:54:07;11.63;;;5.47;;
13927;SDS011;7036;50.834;4.718;2023-03-01T08:56:33;25.97;;;7.10;;
13927;SDS011;7036;50.834;4.718;2023-03-01T08:59:00;24.10;;;7.47;;
13927;SDS011;7036;50.834;4.718;2023-03-01T09:01:27;19.55;;;6.22;;
13927;SDS011;7036;50.834;4.718;2023-03-01T09:03:54;15.98;;;6.05;;
13927;SDS011;7036;50.834;4.718;2023-03-01T09:06:21;12.82;;;5.93;;
13927;SDS011;7036;50.834;4.718;2023-03-01T09:08:49;16.83;;;6.45;;
13927;SDS011;7036;50.834;4.718;2023-03-01T09:11:17;17.17;;;6.15;;
13927;SDS011;7036;50.834;4.718;2023-03-01T09:13:44;27.95;;;8.30;;
13927;SDS011;7036;50.834;4.718;2023-03-01T09:16:12;15.15;;;6.72;;
13927;SDS011;7036;50.834;4.718;2023-03-01T09:18:39;24.20;;;8.57;;
13927;SDS011;7036;50.834;4.718;2023-03-01T09:21:07;37.72;;;9.75;;
13927;SDS011;7036;50.834;4.718;2023-03-01T09:23:34;47.15;;;9.15;;
13927;SDS011;7036;50.834;4.718;2023-03-01T09:26:05;17.93;;;7.80;;
13927;SDS011;7036;50.834;4.718;2023-03-01T09:28:31;53.73;;;10.57;;
13927;SDS011;7036;50.834;4.718;2023-03-01T09:30:59;42.45;;;9.68;;
13927;SDS011;7036;50.834;4.718;2023-03-01T09:33:27;38.05;;;9.13;;
13927;SDS011;7036;50.834;4.718;2023-03-01T09:35:57;30.85;;;9.70;;
13927;SDS011;7036;50.834;4.718;2023-03-01T09:38:24;34.17;;;9.20;;
13927;SDS011;7036;50.834;4.718;2023-03-01T09:40:51;37.63;;;9.55;;
13927;SDS011;7036;50.834;4.718;2023-03-01T09:43:30;29.08;;;8.43;;
13927;SDS011;7036;50.834;4.718;2023-03-01T09:45:55;44.17;;;8.67;;
13927;SDS011;7036;50.834;4.718;2023-03-01T09:48:23;25.10;;;7.40;;
13927;SDS011;7036;50.834;4.718;2023-03-01T09:50:49;35.95;;;9.02;;
13927;SDS011;7036;50.834;4.718;2023-03-01T09:53:17;53.13;;;9.88;;
13927;SDS011;7036;50.834;4.718;2023-03-01T09:55:44;56.70;;;12.70;;
13927;SDS011;7036;50.834;4.718;2023-03-01T09:58:30;24.53;;;8.43;;
13927;SDS011;7036;50.834;4.718;2023-03-01T10:02:02;31.63;;;9.30;;
13927;SDS011;7036;50.834;4.718;2023-03-01T10:03:42;38.07;;;9.70;;
13927;SDS011;7036;50.834;4.718;2023-03-01T10:08:38;36.03;;;9.27;;
13927;SDS011;7036;50.834;4.718;2023-03-01T10:14:05;46.90;;;9.90;;
13927;SDS011;7036;50.834;4.718;2023-03-01T10:16:38;29.37;;;9.33;;
13927;SDS011;7036;50.834;4.718;2023-03-01T10:19:17;39.80;;;9.67;;
13927;SDS011;7036;50.834;4.718;2023-03-01T10:21:43;59.33;;;10.38;;
13927;SDS011;7036;50.834;4.718;2023-03-01T10:24:13;32.17;;;8.85;;
13927;SDS011;7036;50.834;4.718;2023-03-01T10:26:44;33.67;;;8.47;;
13927;SDS011;7036;50.834;4.718;2023-03-01T10:29:08;30.60;;;8.80;;
13927;SDS011;7036;50.834;4.718;2023-03-01T10:31:49;29.10;;;8.73;;
13927;SDS011;7036;50.834;4.718;2023-03-01T10:34:19;26.27;;;8.80;;
13927;SDS011;7036;50.834;4.718;2023-03-01T10:36:49;19.73;;;7.53;;
13927;SDS011;7036;50.834;4.718;2023-03-01T10:39:16;26.37;;;8.03;;
13927;SDS011;7036;50.834;4.718;2023-03-01T10:41:56;25.13;;;7.13;;
13927;SDS011;7036;50.834;4.718;2023-03-01T10:47:12;21.90;;;7.20;;
13927;SDS011;7036;50.834;4.718;2023-03-01T10:49:35;17.92;;;7.75;;
13927;SDS011;7036;50.834;4.718;2023-03-01T10:54:55;20.57;;;6.60;;
13927;SDS011;7036;50.834;4.718;2023-03-01T10:57:27;18.50;;;7.67;;
13927;SDS011;7036;50.834;4.718;2023-03-01T11:00:00;12.83;;;6.57;;
13927;SDS011;7036;50.834;4.718;2023-03-01T11:02:23;13.48;;;6.90;;
13927;SDS011;7036;50.834;4.718;2023-03-01T11:04:59;16.15;;;6.50;;
13927;SDS011;7036;50.834;4.718;2023-03-01T11:07:25;15.60;;;7.47;;
13927;SDS011;7036;50.834;4.718;2023-03-01T11:09:53;13.38;;;6.65;;
13927;SDS011;7036;50.834;4.718;2023-03-01T11:12:20;12.52;;;6.15;;
13927;SDS011;7036;50.834;4.718;2023-03-01T11:14:49;14.20;;;6.80;;
13927;SDS011;7036;50.834;4.718;2023-03-01T11:17:21;15.53;;;7.57;;
13927;SDS011;7036;50.834;4.718;2023-03-01T11:20:00;8.80;;;5.97;;
13927;SDS011;7036;50.834;4.718;2023-03-01T11:22:26;13.43;;;6.30;;
13927;SDS011;7036;50.834;4.718;2023-03-01T11:24:54;14.60;;;6.65;;
13927;SDS011;7036;50.834;4.718;2023-03-01T11:27:28;12.88;;;6.25;;
13927;SDS011;7036;50.834;4.718;2023-03-01T11:29:53;12.77;;;6.10;;
13927;SDS011;7036;50.834;4.718;2023-03-01T11:32:50;15.30;;;6.77;;
13927;SDS011;7036;50.834;4.718;2023-03-01T11:40:39;25.23;;;7.00;;
13927;SDS011;7036;50.834;4.718;2023-03-01T11:42:59;13.63;;;6.97;;
13927;SDS011;7036;50.834;4.718;2023-03-01T11:45:26;22.40;;;7.87;;
13927;SDS011;7036;50.834;4.718;2023-03-01T11:48:02;23.38;;;6.88;;
13927;SDS011;7036;50.834;4.718;2023-03-01T11:50:47;16.67;;;7.03;;
13927;SDS011;7036;50.834;4.718;2023-03-01T11:53:21;11.93;;;6.83;;
13927;SDS011;7036;50.834;4.718;2023-03-01T11:56:07;18.10;;;7.80;;
13927;SDS011;7036;50.834;4.718;2023-03-01T11:58:37;16.33;;;7.27;;
13927;SDS011;7036;50.834;4.718;2023-03-01T12:01:16;19.17;;;7.27;;
13927;SDS011;7036;50.834;4.718;2023-03-01T12:07:02;24.07;;;7.93;;
13927;SDS011;7036;50.834;4.718;2023-03-01T12:09:48;32.80;;;7.57;;
13927;SDS011;7036;50.834;4.718;2023-03-01T12:12:36;19.20;;;7.33;;
13927;SDS011;7036;50.834;4.718;2023-03-01T12:14:55;20.55;;;8.75;;
13927;SDS011;7036;50.834;4.718;2023-03-01T12:17:25;16.60;;;9.13;;
13927;SDS011;7036;50.834;4.718;2023-03-01T12:25:23;22.63;;;8.97;;
13927;SDS011;7036;50.834;4.718;2023-03-01T12:49:39;13.97;;;6.70;;
13927;SDS011;7036;50.834;4.718;2023-03-01T12:54:31;10.75;;;7.00;;
13927;SDS011;7036;50.834;4.718;2023-03-01T12:57:00;12.70;;;6.50;;
13927;SDS011;7036;50.834;4.718;2023-03-01T13:02:26;8.80;;;6.63;;
13927;SDS011;7036;50.834;4.718;2023-03-01T13:13:27;10.40;;;5.70;;
13927;SDS011;7036;50.834;4.718;2023-03-01T13:15:25;9.13;;;6.33;;
13927;SDS011;7036;50.834;4.718;2023-03-01T13:17:55;12.40;;;6.03;;
13927;SDS011;7036;50.834;4.718;2023-03-01T13:20:27;16.52;;;6.20;;
13927;SDS011;7036;50.834;4.718;2023-03-01T13:23:00;7.53;;;5.13;;
13927;SDS011;7036;50.834;4.718;2023-03-01T13:25:18;19.67;;;6.25;;
13927;SDS011;7036;50.834;4.718;2023-03-01T13:27:46;25.20;;;8.05;;
13927;SDS011;7036;50.834;4.718;2023-03-01T13:35:49;20.53;;;7.67;;
13927;SDS011;7036;50.834;4.718;2023-03-01T13:41:03;18.03;;;6.77;;
13927;SDS011;7036;50.834;4.718;2023-03-01T13:43:38;13.60;;;6.70;;
13927;SDS011;7036;50.834;4.718;2023-03-01T13:46:00;17.07;;;6.30;;
13927;SDS011;7036;50.834;4.718;2023-03-01T13:48:27;18.00;;;6.27;;
13927;SDS011;7036;50.834;4.718;2023-03-01T13:50:57;17.65;;;5.65;;
13927;SDS011;7036;50.834;4.718;2023-03-01T13:53:25;29.57;;;7.30;;
13927;SDS011;7036;50.834;4.718;2023-03-01T13:55:55;19.00;;;6.78;;
13927;SDS011;7036;50.834;4.718;2023-03-01T14:00:57;9.53;;;5.87;;
13927;SDS011;7036;50.834;4.718;2023-03-01T14:03:23;16.80;;;6.07;;
13927;SDS011;7036;50.834;4.718;2023-03-01T14:06:02;18.58;;;6.55;;
13927;SDS011;7036;50.834;4.718;2023-03-01T14:08:34;20.70;;;6.77;;
13927;SDS011;7036;50.834;4.718;2023-03-01T14:17:02;29.87;;;8.73;;
13927;SDS011;7036;50.834;4.718;2023-03-01T14:21:24;12.30;;;6.30;;
13927;SDS011;7036;50.834;4.718;2023-03-01T14:23:52;16.80;;;7.25;;
13927;SDS011;7036;50.834;4.718;2023-03-01T14:26:21;16.00;;;6.50;;
13927;SDS011;7036;50.834;4.718;2023-03-01T14:28:48;14.40;;;5.88;;
13927;SDS011;7036;50.834;4.718;2023-03-01T14:33:57;19.53;;;5.67;;
13927;SDS011;7036;50.834;4.718;2023-03-01T14:36:28;13.70;;;5.88;;
13927;SDS011;7036;50.834;4.718;2023-03-01T14:38:54;15.60;;;6.40;;
13927;SDS011;7036;50.834;4.718;2023-03-01T14:41:22;9.40;;;5.20;;
13927;SDS011;7036;50.834;4.718;2023-03-01T14:43:50;14.88;;;5.75;;
13927;SDS011;7036;50.834;4.718;2023-03-01T14:46:19;11.13;;;5.70;;
13927;SDS011;7036;50.834;4.718;2023-03-01T14:48:44;19.85;;;6.53;;
13927;SDS011;7036;50.834;4.718;2023-03-01T14:51:11;18.97;;;5.47;;
13927;SDS011;7036;50.834;4.718;2023-03-01T14:53:38;19.13;;;6.90;;
13927;SDS011;7036;50.834;4.718;2023-03-01T14:56:12;19.38;;;6.90;;
13927;SDS011;7036;50.834;4.718;2023-03-01T14:58:34;13.30;;;5.38;;
13927;SDS011;7036;50.834;4.718;2023-03-01T15:01:03;14.13;;;5.50;;
13927;SDS011;7036;50.834;4.718;2023-03-01T15:03:33;24.27;;;7.97;;
13927;SDS011;7036;50.834;4.718;2023-03-01T15:06:02;18.87;;;7.43;;
13927;SDS011;7036;50.834;4.718;2023-03-01T15:08:29;25.10;;;8.03;;
13927;SDS011;7036;50.834;4.718;2023-03-01T15:11:17;18.35;;;6.70;;
13927;SDS011;7036;50.834;4.718;2023-03-01T15:13:25;18.00;;;6.53;;
13927;SDS011;7036;50.834;4.718;2023-03-01T15:15:53;24.20;;;6.75;;
13927;SDS011;7036;50.834;4.718;2023-03-01T15:18:20;15.38;;;6.70;;
13927;SDS011;7036;50.834;4.718;2023-03-01T15:20:48;20.93;;;6.50;;
13927;SDS011;7036;50.834;4.718;2023-03-01T15:23:26;28.42;;;7.18;;
13927;SDS011;7036;50.834;4.718;2023-03-01T15:25:52;37.90;;;7.03;;
13927;SDS011;7036;50.834;4.718;2023-03-01T15:28:19;18.92;;;6.35;;
13927;SDS011;7036;50.834;4.718;2023-03-01T15:30:46;17.73;;;7.20;;
13927;SDS011;7036;50.834;4.718;2023-03-01T15:36:00;20.10;;;5.97;;
13927;SDS011;7036;50.834;4.718;2023-03-01T15:38:25;19.63;;;6.67;;
13927;SDS011;7036;50.834;4.718;2023-03-01T15:40:51;21.98;;;7.65;;
13927;SDS011;7036;50.834;4.718;2023-03-01T15:46:17;21.03;;;6.87;;
13927;SDS011;7036;50.834;4.718;2023-03-01T15:48:45;19.13;;;6.70;;
13927;SDS011;7036;50.834;4.718;2023-03-01T15:51:11;28.00;;;7.43;;
13927;SDS011;7036;50.834;4.718;2023-03-01T15:53:38;30.65;;;8.38;;
13927;SDS011;7036;50.834;4.718;2023-03-01T15:56:05;39.00;;;10.07;;
13927;SDS011;7036;50.834;4.718;2023-03-01T15:58:32;30.27;;;8.82;;
13927;SDS011;7036;50.834;4.718;2023-03-01T16:01:00;19.05;;;6.20;;
13927;SDS011;7036;50.834;4.718;2023-03-01T16:03:27;27.50;;;8.80;;
13927;SDS011;7036;50.834;4.718;2023-03-01T16:05:54;24.27;;;8.30;;
13927;SDS011;7036;50.834;4.718;2023-03-01T16:08:22;21.35;;;7.20;;
13927;SDS011;7036;50.834;4.718;2023-03-01T16:10:49;16.38;;;6.88;;
13927;SDS011;7036;50.834;4.718;2023-03-01T16:13:17;16.95;;;6.95;;
13927;SDS011;7036;50.834;4.718;2023-03-01T16:15:44;16.77;;;6.68;;
13927;SDS011;7036;50.834;4.718;2023-03-01T16:18:11;22.40;;;7.35;;
13927;SDS011;7036;50.834;4.718;2023-03-01T16:20:39;23.95;;;7.10;;
13927;SDS011;7036;50.834;4.718;2023-03-01T16:23:07;23.08;;;7.45;;
13927;SDS011;7036;50.834;4.718;2023-03-01T16:25:33;27.10;;;8.63;;
13927;SDS011;7036;50.834;4.718;2023-03-01T16:28:00;46.83;;;11.25;;
13927;SDS011;7036;50.834;4.718;2023-03-01T16:30:28;30.70;;;8.13;;
13927;SDS011;7036;50.834;4.718;2023-03-01T16:32:55;36.30;;;7.88;;
13927;SDS011;7036;50.834;4.718;2023-03-01T16:35:22;28.20;;;7.85;;
13927;SDS011;7036;50.834;4.718;2023-03-01T16:37:50;24.42;;;7.03;;